Tiempo atmosférico en la estación meteorológica de Muñotello, Ávila (1178 m.)



Fecha
DESCASC
Temp. máxima en grados centígrados (hora)
DESCASC
Temp. mínima en grados centígrados (hora)
DESCASC
Temp. media en grados centígrados
DESCASC
Racha de viento máxima en m/sg (hora)
DESCASC
Velocidad máxima media en intervalos de 10 minutos(hora)
DESCASC
Precipitaciones diarias en mm
DESCASC
Precipitaciones de 00:00 a 06:00 en mm
DESCASC
Precipitaciones de 06:00 a 12:00 en mm
DESCASC
Precipitaciones de 12:00 a 18:00 en mm
DESCASC
Precipitaciones de 18:00 a 24:00 en mm
DESCASC
15-08-2019 30.5 (18:20) 16.9 (07:30) 23.7 8.89 (14:30) 5 (18:30) 0 0 0 0 0
14-08-2019 29 (16:10) 11.3 (00:00) 20.2 8.89 (15:50) 5 (17:00) 0 0 0 0 0
13-08-2019 25.5 (17:20) 9 (00:00) 17.3 8.33 (14:20) 4.44 (19:40) 0 0 0 0 0
12-08-2019 20.9 (17:40) 7.6 (00:00) 14.2 6.67 (00:20) 3.89 (00:20) 0 0 0 0 0
11-08-2019 21.8 (17:00) 11.9 (00:00) 16.8 12.5 (16:10) 10 (16:10) 0 0 0 0 0
10-08-2019 26.9 (16:40) 9.1 (00:00) 18 8.33 (18:10) 5.56 (18:10) 0 0 0 0 0
09-08-2019 26.3 (16:20) 14 (00:00) 20.1 14.72 (12:30) 8.89 (12:30) 0.8 0 0 0.6 0.2
08-08-2019 30 (15:20) 14.3 (00:00) 22.2 13.61 (15:40) 7.5 (15:40) 0 0 0 0 0
07-08-2019 22.5 (13:00) 16.6 (00:00) 19.6 13.89 (17:30) 7.78 (17:30) 0.4 0 0 0.4 0
06-08-2019 32 (16:30) 16.2 (00:00) 24.1 11.39 (16:40) 8.33 (18:30) 0 0 0 0 0
05-08-2019 32.3 (17:30) 15.3 (00:00) 23.8 12.22 (16:30) 6.67 (20:20) 0 0 0 0 0
04-08-2019 32 (16:00) 16 (00:00) 24 11.11 (14:20) 6.67 (18:40) 0 0 0 0 0
03-08-2019 32.5 (15:50) 16.7 (00:00) 24.6 10 (18:50) 6.94 (18:50) 0 0 0 0 0
02-08-2019 31.2 (16:20) 14.4 (00:00) 22.8 8.89 (15:40) 4.72 (16:10) 0 0 0 0 0
01-08-2019 29.5 (16:50) 16.3 (00:00) 22.9 12.22 (12:40) 8.33 (11:30) 0 0 0 0 0
31-07-2019 30.2 (18:00) 10.2 (00:00) 20.2 12.5 (16:10) 6.94 (13:30) 0 0 0 0 0
30-07-2019 24 (16:40) 8.2 (00:00) 16.1 8.33 (00:20) 5 (00:20) 0 0 0 0 0
29-07-2019 26.5 (14:50) 13.5 (00:00) 20 14.44 (17:20) 9.44 (18:10) 0 0 0 0 0
28-07-2019 26.8 (17:40) 10.2 (00:00) 18.5 11.67 (16:40) 5.56 (14:30) 0 0 0 0 0
27-07-2019 21.6 (17:00) 11.3 (00:00) 16.5 13.33 (12:20) 7.5 (14:20) 0 0 0 0 0
26-07-2019 25 (16:20) 15.9 (00:00) 20.4 12.22 (14:40) 7.78 (14:30) 0 0 0 0 0
25-07-2019 29.9 (17:40) 17.1 (00:00) 23.5 11.94 (13:30) 7.5 (12:50) 0 0 0 0 0
24-07-2019 31.7 (16:50) 17 (00:00) 24.4 11.67 (14:10) 6.39 (14:10) 0 0 0 0 0
23-07-2019 31.3 (16:50) 17 (00:00) 24.1 17.78 (21:40) 11.11 (21:40) 7.6 3 4.6 0 0
22-07-2019 34.1 (15:50) 18.9 (00:00) 26.5 19.72 (23:40) 12.78 (23:59) 0 0 0 0 0
21-07-2019 34 (14:30) 17.1 (00:00) 25.6 14.44 (14:20) 5.28 (12:30) 0 0 0 0 0
20-07-2019 32.8 (17:40) 17.3 (00:00) 25 11.39 (16:10) 7.22 (13:10) 0 0 0 0 0
19-07-2019 33.4 (16:10) 17.1 (00:00) 25.3 12.78 (13:50) 6.67 (17:40) 0 0 0 0 0

Gráficas

Temp. máximas Temp. mínimas Temp. medias Precipitaciones Rachas de viento máximas Velocidades máximas media en intervalos de 10 minutos

Datos horarios

Fecha y hora oficial Temperatura (ºC) Velocidad del viento (km/h) Dirección del viento Racha (km/h) Dirección de racha Precipitación (mm) Presión (hPa) Tendencia (hPa) Humedad (%)
2019-08-17 23:00:00 25.7 19 Sudoeste 28 Sudoeste 0 -- -- 27
2019-08-17 22:00:00 25.4 10 Sudoeste 22 Sudoeste 0 -- -- 25
2019-08-17 21:00:00 27.6 13 Sudoeste 28 Oeste 0 -- -- 24
2019-08-17 20:00:00 30.4 19 Oeste 32 Oeste 0 -- -- 19
2019-08-17 19:00:00 31.6 20 Oeste 39 Oeste 0 -- -- 19
2019-08-17 18:00:00 32.4 24 Oeste 39 Oeste 0 -- -- 17
2019-08-17 17:00:00 32.5 18 Noroeste 42 Oeste 0 -- -- 18
2019-08-17 16:00:00 33.2 13 Sudoeste 38 Sur 0 -- -- 20
2019-08-17 15:00:00 31.2 20 Noroeste 35 Noroeste 0 -- -- 25
2019-08-17 14:00:00 31.4 11 Norte 25 Oeste 0 -- -- 22
2019-08-17 13:00:00 30.3 13 Oeste 22 Oeste 0 -- -- 25
2019-08-17 12:00:00 28.9 5 Norte 10 Noroeste 0 -- -- 28
2019-08-17 11:00:00 25.8 5 Norte 8 Norte 0 -- -- 38
2019-08-17 10:00:00 23.2 0 Calma 4 Nordeste 0 -- -- 42
2019-08-17 09:00:00 20.1 2 Sudeste 11 Sudoeste 0 -- -- 46
2019-08-17 08:00:00 17.2 9 Sur 13 Sur 0 -- -- 53
2019-08-17 07:00:00 16.3 4 Sur 10 Sudoeste 0 -- -- 54
2019-08-17 06:00:00 17.2 7 Sur 10 Sur 0 -- -- 50
2019-08-17 05:00:00 17.8 3 Sudoeste 13 Oeste 0 -- -- 49
2019-08-17 04:00:00 18.8 6 Oeste 18 Oeste 0 -- -- 46
2019-08-17 03:00:00 19.5 0 Calma 18 Noroeste 0 -- -- 48
2019-08-17 02:00:00 21.8 13 Oeste 22 Oeste 0 -- -- 42
2019-08-17 01:00:00 21.5 4 Sudoeste 16 Sudoeste 0 -- -- 34
2019-08-17 00:00:00 22.6 10 Oeste 14 Sudoeste 0 -- -- 30
2019-08-16 23:00:00 23.6 6 Sudoeste 13 Sudoeste 0 -- -- 28
2019-08-16 22:00:00 25.2 7 Oeste 21 Sudoeste 0 -- -- 29
2019-08-16 21:00:00 27.2 12 Oeste 30 Oeste 0 -- -- 29
2019-08-16 20:00:00 29.2 20 Noroeste 32 Oeste 0 -- -- 30
2019-08-16 19:00:00 30.8 21 Oeste 39 Noroeste 0 -- -- 26
2019-08-16 18:00:00 31.6 21 Oeste 35 Oeste 0 -- -- 25
2019-08-16 17:00:00 31.9 18 Oeste 32 Oeste 0 -- -- 26
2019-08-16 16:00:00 31.1 14 Noroeste 31 Noroeste 0 -- -- 28
2019-08-16 15:00:00 30.2 16 Noroeste 36 Oeste 0 -- -- 32
2019-08-16 14:00:00 30.4 21 Oeste 41 Oeste 0 -- -- 27
2019-08-16 13:00:00 29.6 22 Oeste 35 Oeste 0 -- -- 28
2019-08-16 12:00:00 28.4 23 Oeste 32 Oeste 0 -- -- 30
2019-08-16 11:00:00 26.4 6 Nordeste 11 Nordeste 0 -- -- 38
2019-08-16 10:00:00 23.7 4 Este 6 Este 0 -- -- 43
2019-08-16 09:00:00 20.5 0 Calma 7 Sur 0 -- -- 48
2019-08-16 08:00:00 17.5 3 Sur 7 Sur 0 -- -- 53
2019-08-16 07:00:00 16.8 4 Oeste 9 Sur 0 -- -- 54
2019-08-16 06:00:00 17.9 2 Sur 10 Sur 0 -- -- 51
2019-08-16 05:00:00 19.1 4 Sudoeste 9 Sur 0 -- -- 48
2019-08-16 04:00:00 18.3 2 Sur 8 Sur 0 -- -- 49
2019-08-16 03:00:00 19.2 5 Sur 21 Oeste 0 -- -- 47
2019-08-16 02:00:00 19.8 3 Oeste 13 Sur 0 -- -- 45
2019-08-16 01:00:00 20.8 11 Sur 14 Sudoeste 0 -- -- 42
2019-08-16 00:00:00 21.4 6 Sur 14 Sur 0 -- -- 41
2019-08-15 23:00:00 22.6 12 Sur 14 Sudoeste 0 -- -- 38
2019-08-15 22:00:00 24.1 7 Sudoeste 19 Oeste 0 -- -- 36
2019-08-15 21:00:00 26 8 Oeste 21 Noroeste 0 -- -- 32
2019-08-15 20:00:00 28.1 16 Noroeste 30 Norte 0 -- -- 28
2019-08-15 19:00:00 29.3 13 Noroeste 31 Oeste 0 -- -- 26
2019-08-15 18:00:00 29.5 10 Norte 24 Nordeste 0 -- -- 27
2019-08-15 17:00:00 29.9 10 Norte 27 Sudoeste 0 -- -- 28
2019-08-15 16:00:00 29.5 9 Nordeste 23 Norte 0 -- -- 30
2019-08-15 15:00:00 29.2 12 Nordeste 32 Norte 0 -- -- 30
2019-08-15 14:00:00 28.3 8 Noroeste 23 Noroeste 0 -- -- 36
2019-08-15 13:00:00 27.3 7 Nordeste 19 Nordeste 0 -- -- 39
2019-08-15 12:00:00 26 8 Nordeste 15 Nordeste 0 -- -- 42
2019-08-15 11:00:00 24.9 7 Nordeste 12 Nordeste 0 -- -- 46
2019-08-15 10:00:00 23.3 4 Norte 6 Norte 0 -- -- 53
2019-08-15 09:00:00 20.4 3 Noroeste 6 Sur 0 -- -- 62
2019-08-15 08:00:00 17.6 0 Calma 10 Sur 0 -- -- 69
2019-08-15 07:00:00 17.4 8 Sudoeste 18 Oeste 0 -- -- 70
2019-08-15 06:00:00 17.8 11 Oeste 19 Oeste 0 -- -- 70
2019-08-15 05:00:00 18.1 8 Sur 12 Oeste 0 -- -- 70
2019-08-15 04:00:00 18.4 10 Oeste 13 Oeste 0 -- -- 69
2019-08-15 03:00:00 19.8 8 Oeste 17 Oeste 0 -- -- 64
2019-08-15 02:00:00 20.9 13 Sudoeste 18 Sudoeste 0 -- -- 59
2019-08-15 01:00:00 21.8 16 Oeste 25 Oeste 0 -- -- 51
2019-08-15 00:00:00 21.2 9 Sudoeste 14 Sur 0 -- -- 43
2019-08-14 23:00:00 22 8 Sudoeste 14 Oeste 0 -- -- 39
2019-08-14 22:00:00 22.6 6 Sudoeste 10 Sur 0 -- -- 35
2019-08-14 21:00:00 25.1 5 Noroeste 21 Noroeste 0 -- -- 30
2019-08-14 20:00:00 27 14 Noroeste 22 Noroeste 0 -- -- 26
2019-08-14 19:00:00 28.2 10 Oeste 24 Oeste 0 -- -- 24
2019-08-14 18:00:00 28.4 12 Noroeste 30 Noroeste 0 -- -- 24
2019-08-14 17:00:00 28.7 18 Noroeste 28 Noroeste 0 -- -- 22
2019-08-14 16:00:00 28.5 14 Noroeste 32 Noroeste 0 -- -- 22
2019-08-14 15:00:00 28.5 10 Norte 23 Oeste 0 -- -- 22
2019-08-14 14:00:00 27.2 10 Noroeste 26 Noroeste 0 -- -- 23
2019-08-14 13:00:00 26.5 10 Noroeste 23 Oeste 0 -- -- 24
2019-08-14 12:00:00 25.5 6 Oeste 19 Oeste 0 -- -- 25
2019-08-14 11:00:00 23.4 6 Norte 14 Norte 0 -- -- 27
2019-08-14 10:00:00 20 2 Este 7 Este 0 -- -- 33
2019-08-14 09:00:00 17 0 Calma 7 Sur 0 -- -- 40
2019-08-14 08:00:00 13.9 3 Sur 9 Sur 0 -- -- 43
2019-08-14 07:00:00 12.4 3 Sudoeste 8 Sur 0 -- -- 46
2019-08-14 06:00:00 13.1 0 Calma 12 Sur 0 -- -- 44
2019-08-14 05:00:00 14.5 9 Sur 12 Sur 0 -- -- 41
2019-08-14 04:00:00 14.2 10 Sur 13 Sur 0 -- -- 41
2019-08-14 03:00:00 13.4 0 Calma 6 Sur 0 -- -- 41
2019-08-14 02:00:00 14.9 2 Sudeste 13 Sur 0 -- -- 38
2019-08-14 01:00:00 15.1 4 Sur 11 Sur 0 -- -- 37
2019-08-14 00:00:00 16.7 10 Sur 17 Sur 0 -- -- 34
2019-08-13 23:00:00 17.4 12 Sur 15 Sur 0 -- -- 32
2019-08-13 22:00:00 18.8 8 Sudoeste 11 Sudoeste 0 -- -- 29
2019-08-13 21:00:00 21 6 Noroeste 22 Noroeste 0 -- -- 26
2019-08-13 20:00:00 23 14 Noroeste 23 Norte 0 -- -- 24
2019-08-13 19:00:00 24.1 15 Noroeste 23 Noroeste 0 -- -- 23
2019-08-13 18:00:00 24.9 14 Noroeste 27 Noroeste 0 -- -- 25
2019-08-13 17:00:00 25 6 Norte 26 Noroeste 0 -- -- 27
2019-08-13 16:00:00 24.8 6 Nordeste 19 Norte 0 -- -- 27
2019-08-13 15:00:00 23.4 9 Norte 30 Nordeste 0 -- -- 29
2019-08-13 14:00:00 22.6 10 Norte 20 Norte 0 -- -- 30
2019-08-13 13:00:00 21.6 6 Este 17 Nordeste 0 -- -- 31
2019-08-13 12:00:00 19.9 8 Nordeste 16 Este 0 -- -- 34
2019-08-13 11:00:00 19.3 7 Este 14 Este 0 -- -- 37
2019-08-13 10:00:00 16.1 3 Norte 5 Nordeste 0 -- -- 47
2019-08-13 09:00:00 13.2 0 Calma 3 Oeste 0 -- -- 54
2019-08-13 08:00:00 9.4 0 Calma 6 Sur 0 -- -- 63
2019-08-13 07:00:00 9 0 Calma 8 Sur 0 -- -- 64
2019-08-13 06:00:00 9.6 3 Oeste 7 Sur 0 -- -- 63
2019-08-13 05:00:00 10.6 0 Calma 5 Sur 0 -- -- 59
2019-08-13 04:00:00 11.7 3 Sur 12 Sur 0 -- -- 55
2019-08-13 03:00:00 12.7 4 Sur 8 Sur 0 -- -- 52
2019-08-13 02:00:00 13.9 3 Sudeste 8 Sur 0 -- -- 46
2019-08-13 01:00:00 14.4 5 Sur 9 Sudeste 0 -- -- 43
2019-08-13 00:00:00 15 0 Calma 9 Sur 0 -- -- 40
2019-08-12 23:00:00 16 8 Sur 12 Sur 0 -- -- 38
2019-08-12 22:00:00 16.6 3 Sur 9 Sur 0 -- -- 35
2019-08-12 21:00:00 17.9 7 Nordeste 17 Norte 0 -- -- 32
2019-08-12 20:00:00 19.8 12 Norte 21 Norte 0 -- -- 29
2019-08-12 19:00:00 20.6 8 Norte 19 Nordeste 0 -- -- 28
2019-08-12 18:00:00 20.6 10 Nordeste 21 Nordeste 0 -- -- 30
2019-08-12 17:00:00 20.5 12 Nordeste 19 Nordeste 0 -- -- 29
2019-08-12 16:00:00 19.7 10 Nordeste 22 Nordeste 0 -- -- 33
2019-08-12 15:00:00 19.3 12 Nordeste 22 Nordeste 0 -- -- 36
2019-08-12 14:00:00 17.8 7 Nordeste 21 Este 0 -- -- 40
2019-08-12 13:00:00 16.7 8 Este 24 Sudeste 0 -- -- 46
2019-08-12 12:00:00 15.4 10 Este 21 Este 0 -- -- 50
2019-08-12 11:00:00 13.7 3 Este 20 Este 0 -- -- 59
2019-08-12 10:00:00 13.3 10 Nordeste 21 Este 0 -- -- 62
2019-08-12 09:00:00 12 4 Norte 9 Oeste 0 -- -- 68
2019-08-12 08:00:00 9.2 4 Sudoeste 6 Sur 0 -- -- 78
2019-08-12 07:00:00 7.7 3 Sur 16 Oeste 0 -- -- 78
2019-08-12 06:00:00 8.7 12 Oeste 17 Oeste 0 -- -- 75
2019-08-12 05:00:00 9.1 8 Oeste 13 Sudoeste 0 -- -- 71
2019-08-12 04:00:00 10.3 10 Sudoeste 13 Sudoeste 0 -- -- 67
2019-08-12 03:00:00 11.5 3 Noroeste 24 Oeste 0 -- -- 60
2019-08-12 02:00:00 12.5 9 Oeste 24 Oeste 0 -- -- 57
2019-08-12 01:00:00 13.3 12 Sudoeste 24 Oeste 0 -- -- 54
2019-08-12 00:00:00 13.8 9 Sudoeste 17 Sudoeste 0 -- -- 47
2019-08-11 23:00:00 14.6 9 Sudoeste 23 Sudoeste 0 -- -- 44
2019-08-11 22:00:00 15.6 11 Sudoeste 25 Oeste 0 -- -- 41
2019-08-11 21:00:00 17.8 19 Oeste 33 Oeste 0 -- -- 35
2019-08-11 20:00:00 18.5 24 Oeste 39 Oeste 0 -- -- 36
2019-08-11 19:00:00 20.3 26 Oeste 42 Oeste 0 -- -- 35
2019-08-11 18:00:00 21.2 27 Oeste 45 Oeste 0 -- -- 34
2019-08-11 17:00:00 21.8 27 Oeste 45 Oeste 0 -- -- 40
2019-08-11 16:00:00 21.4 29 Oeste 45 Oeste 0 -- -- 44
2019-08-11 15:00:00 20.3 24 Oeste 44 Oeste 0 -- -- 47
2019-08-11 14:00:00 20.2 26 Noroeste 44 Oeste 0 -- -- 51
2019-08-11 13:00:00 19.6 22 Noroeste 40 Noroeste 0 -- -- 55
2019-08-11 12:00:00 18.6 22 Noroeste 35 Noroeste 0 -- -- 60
2019-08-11 11:00:00 18.3 18 Oeste 29 Oeste 0 -- -- 58
2019-08-11 10:00:00 17 10 Oeste 18 Noroeste 0 -- -- 62
2019-08-11 09:00:00 14.7 4 Noroeste 9 Sur 0 -- -- 70
2019-08-11 08:00:00 12.7 4 Sudoeste 8 Sur 0 -- -- 73
2019-08-11 07:00:00 12.3 3 Oeste 10 Norte 0 -- -- 75
2019-08-11 06:00:00 13.7 7 Nordeste 19 Oeste 0 -- -- 72
2019-08-11 05:00:00 15 11 Noroeste 30 Sudoeste 0 -- -- 66
2019-08-11 04:00:00 15.9 22 Oeste 34 Oeste 0 -- -- 58
2019-08-11 03:00:00 16.3 13 Oeste 25 Oeste 0 -- -- 57
2019-08-11 02:00:00 16.1 6 Oeste 8 Oeste 0 -- -- 72
2019-08-11 01:00:00 16.8 4 Oeste 19 Oeste 0 -- -- 65
2019-08-11 00:00:00 -- 12 Oeste 22 Oeste 0 -- -- --
2019-08-10 23:00:00 20 8 Oeste 18 Oeste 0 -- -- 43
2019-08-10 22:00:00 21.3 14 Oeste 24 Oeste 0 -- -- 38
2019-08-10 21:00:00 22.2 12 Oeste 21 Oeste 0 -- -- 37
2019-08-10 20:00:00 23.5 6 Sudoeste 26 Sudoeste 0 -- -- 37
2019-08-10 19:00:00 25.2 12 Oeste 30 Oeste 0 -- -- 34
2019-08-10 18:00:00 26.4 15 Oeste 26 Oeste 0 -- -- 35
2019-08-10 17:00:00 26.9 8 Noroeste 22 Oeste 0 -- -- 32
2019-08-10 16:00:00 26.6 9 Oeste 26 Noroeste 0 -- -- 30
2019-08-10 15:00:00 25 7 Nordeste 14 Este 0 -- -- 34
2019-08-10 14:00:00 22.7 6 Norte 13 Nordeste 0 -- -- 42
2019-08-10 13:00:00 20.8 7 Nordeste 15 Nordeste 0 -- -- 53
2019-08-10 12:00:00 18.8 8 Nordeste 16 Nordeste 0 -- -- 59
2019-08-10 11:00:00 17.4 6 Norte 15 Nordeste 0 -- -- 64
2019-08-10 10:00:00 16 3 Este 7 Sudeste 0 -- -- 71
2019-08-10 09:00:00 13 3 Noroeste 8 Oeste 0 -- -- 82
2019-08-10 08:00:00 10.3 0 Calma 10 Oeste 0 -- -- 90
2019-08-10 07:00:00 9.8 2 Sudoeste 10 Sur 0 -- -- 89
2019-08-10 06:00:00 11.3 5 Sudoeste 8 Sur 0 -- -- 87
2019-08-10 05:00:00 11.4 2 Oeste 13 Sudoeste 0 -- -- 85
2019-08-10 04:00:00 12.1 8 Sudoeste 13 Oeste 0 -- -- 84
2019-08-10 03:00:00 12.5 6 Oeste 12 Oeste 0 -- -- 82
2019-08-10 02:00:00 13.3 2 Sur 8 Sur 0 -- -- 79
2019-08-10 01:00:00 13 3 Este 11 Oeste 0 -- -- 85
2019-08-10 00:00:00 14 9 Oeste 22 Oeste 0 -- -- 80
2019-08-09 23:00:00 15.5 18 Oeste 35 Oeste 0 -- -- 85
2019-08-09 22:00:00 16.2 18 Oeste 29 Oeste 0 -- -- 89
2019-08-09 21:00:00 17.9 6 Oeste 17 Oeste 0 -- -- 82
2019-08-09 20:00:00 17.4 6 Norte 30 Oeste 0 -- -- 85
2019-08-09 19:00:00 16.9 20 Oeste 44 Oeste 0.2 -- -- 86
2019-08-09 18:00:00 18.8 26 Oeste 49 Oeste 0.2 -- -- 75
2019-08-09 17:00:00 22.1 29 Oeste 48 Oeste 0.2 -- -- 73
2019-08-09 16:00:00 24.7 25 Noroeste 37 Oeste 0.2 -- -- 63
2019-08-09 15:00:00 24.1 30 Oeste 48 Sudoeste 0 -- -- 62
2019-08-09 14:00:00 25.1 31 Oeste 44 Oeste 0 -- -- 54
2019-08-09 13:00:00 24.2 28 Oeste 53 Oeste 0 -- -- 59
2019-08-09 12:00:00 24.4 24 Sudoeste 46 Oeste 0 -- -- 55
2019-08-09 11:00:00 23.3 22 Sudoeste 45 Sudoeste 0 -- -- 59
2019-08-09 10:00:00 23.5 17 Sudoeste 41 Sudoeste 0 -- -- 57
2019-08-09 09:00:00 21.2 11 Sudoeste 26 Sur 0 -- -- 64
2019-08-09 08:00:00 19.5 8 Sudeste 22 Sudoeste 0 -- -- 64
2019-08-09 07:00:00 17.7 11 Noroeste 17 Noroeste 0 -- -- 65
2019-08-09 06:00:00 17.3 4 Este 10 Este 0 -- -- 67
2019-08-09 05:00:00 17.5 3 Sur 22 Oeste 0 -- -- 69
2019-08-09 04:00:00 18.2 15 Oeste 31 Oeste 0 -- -- 70
2019-08-09 03:00:00 19.2 12 Oeste 23 Oeste 0 -- -- 64
2019-08-09 02:00:00 19.1 5 Oeste 20 Noroeste 0 -- -- 68
2019-08-09 01:00:00 20.3 10 Oeste 17 Oeste 0 -- -- 65
2019-08-09 00:00:00 21.4 10 Oeste 19 Oeste 0 -- -- 56
2019-08-08 23:00:00 22.2 3 Sudoeste 13 Sudoeste 0 -- -- 52
2019-08-08 22:00:00 23.4 9 Sur 25 Sur 0 -- -- 48
2019-08-08 21:00:00 25.1 15 Sudoeste 29 Sur 0 -- -- 42
2019-08-08 20:00:00 26.9 17 Sudoeste 35 Sudoeste 0 -- -- 37
2019-08-08 19:00:00 28.9 17 Sudoeste 39 Sudoeste 0 -- -- 32
2019-08-08 18:00:00 29.5 18 Sur 39 Oeste 0 -- -- 30
2019-08-08 17:00:00 29.7 26 Oeste 43 Oeste 0 -- -- 32
2019-08-08 16:00:00 29.8 20 Oeste 49 Oeste 0 -- -- 37
2019-08-08 15:00:00 27.7 3 Este 12 Este 0 -- -- 44
2019-08-08 14:00:00 26.9 3 Nordeste 15 Nordeste 0 -- -- 45
2019-08-08 13:00:00 26.4 5 Nordeste 14 Nordeste 0 -- -- 47
2019-08-08 12:00:00 25.2 6 Este 13 Nordeste 0 -- -- 50
2019-08-08 11:00:00 23.4 6 Noroeste 13 Noroeste 0 -- -- 55
2019-08-08 10:00:00 21.5 4 Este 9 Nordeste 0 -- -- 58
2019-08-08 09:00:00 18.5 3 Este 6 Sudeste 0 -- -- 64
2019-08-08 08:00:00 14.9 3 Sudoeste 10 Sur 0 -- -- 74
2019-08-08 07:00:00 14.9 7 Sur 12 Sur 0 -- -- 72
2019-08-08 06:00:00 14.6 5 Oeste 12 Oeste 0 -- -- 70
2019-08-08 05:00:00 15.5 3 Sur 12 Sur 0 -- -- 67
2019-08-08 04:00:00 15.5 4 Sudeste 8 Sur 0 -- -- 68
2019-08-08 03:00:00 15.8 3 Este 9 Sur 0 -- -- 67
2019-08-08 02:00:00 15.9 4 Sudoeste 11 Sur 0 -- -- 65
2019-08-08 01:00:00 16.1 0 Calma 7 Oeste 0 -- -- 67
2019-08-08 00:00:00 16.7 3 Sudoeste 12 Sudoeste 0 -- -- 66
2019-08-07 23:00:00 17.5 9 Oeste 28 Oeste 0 -- -- 63
2019-08-07 22:00:00 19.5 13 Oeste 27 Oeste 0 -- -- 54
2019-08-07 21:00:00 20.8 14 Oeste 36 Oeste 0 -- -- 52
2019-08-07 20:00:00 21.7 20 Oeste 34 Oeste 0 -- -- 54
2019-08-07 19:00:00 21.2 24 Oeste 40 Sudoeste 0 -- -- 57
2019-08-07 18:00:00 20.4 26 Sudoeste 50 Sudoeste 0 -- -- 60
2019-08-07 17:00:00 19.9 9 Este 15 Sudeste 0.2 -- -- 61
2019-08-07 16:00:00 19.6 5 Oeste 15 Noroeste 0 -- -- 64
2019-08-07 15:00:00 19.9 6 Noroeste 14 Oeste 0.2 -- -- 60
2019-08-07 14:00:00 20.4 6 Sudoeste 19 Oeste 0 -- -- 61
2019-08-07 13:00:00 22.5 10 Oeste 21 Oeste 0 -- -- 41
2019-08-07 12:00:00 21.6 4 Norte 7 Nordeste 0 -- -- 57
2019-08-07 11:00:00 20.7 3 Nordeste 6 Nordeste 0 -- -- 61
2019-08-07 10:00:00 19.8 0 Calma 5 Norte 0 -- -- 66
2019-08-07 09:00:00 18.4 2 Noroeste 19 Oeste 0 -- -- 71
2019-08-07 08:00:00 16.9 5 Sudoeste 9 Oeste 0 -- -- 73
2019-08-07 07:00:00 17.9 5 Sudoeste 13 Sudoeste 0 -- -- 70
2019-08-07 06:00:00 17.6 7 Oeste 12 Sudoeste 0 -- -- 67
2019-08-07 05:00:00 18.5 3 Sudoeste 11 Oeste 0 -- -- 64
2019-08-07 04:00:00 19.6 10 Oeste 14 Oeste 0 -- -- 61
2019-08-07 03:00:00 20 6 Sudoeste 14 Oeste 0 -- -- 59
2019-08-07 02:00:00 20.3 8 Oeste 13 Oeste 0 -- -- 57
2019-08-07 01:00:00 21 7 Sudoeste 22 Noroeste 0 -- -- 52
2019-08-07 00:00:00 22.3 17 Oeste 31 Sudoeste 0 -- -- 47
2019-08-06 23:00:00 23.8 23 Sudoeste 37 Sudoeste 0 -- -- 40
2019-08-06 22:00:00 24.2 22 Sudoeste 30 Sudoeste 0 -- -- 37
2019-08-06 21:00:00 26 20 Oeste 33 Oeste 0 -- -- 31
2019-08-06 20:00:00 27.3 15 Oeste 34 Oeste 0 -- -- 27
2019-08-06 19:00:00 28.8 22 Oeste 41 Oeste 0 -- -- 27
2019-08-06 18:00:00 30.1 23 Oeste 41 Oeste 0 -- -- 27
2019-08-06 17:00:00 31.2 27 Oeste 41 Oeste 0 -- -- 23
2019-08-06 16:00:00 31.7 21 Oeste 31 Oeste 0 -- -- 22
2019-08-06 15:00:00 30.6 18 Noroeste 36 Oeste 0 -- -- 23
2019-08-06 14:00:00 30.2 23 Oeste 33 Oeste 0 -- -- 23
2019-08-06 13:00:00 28.7 23 Oeste 32 Oeste 0 -- -- 25
2019-08-06 12:00:00 27.8 17 Oeste 26 Oeste 0 -- -- 28
2019-08-06 11:00:00 24.7 3 Norte 10 Nordeste 0 -- -- 39
2019-08-06 10:00:00 22 5 Noroeste 8 Noroeste 0 -- -- 47
2019-08-06 09:00:00 19 0 Calma 5 Nordeste 0 -- -- 51
2019-08-06 08:00:00 17.8 0 Calma 21 Sudoeste 0 -- -- 50
2019-08-06 07:00:00 17 4 Sur 10 Sur 0 -- -- 49
2019-08-06 06:00:00 16.4 0 Calma 9 Sur 0 -- -- 50
2019-08-06 05:00:00 18 10 Sur 12 Sur 0 -- -- 46
2019-08-06 04:00:00 18.6 4 Este 18 Oeste 0 -- -- 40
2019-08-06 03:00:00 21 13 Oeste 18 Oeste 0 -- -- 37
2019-08-06 02:00:00 20.7 5 Oeste 12 Sudoeste 0 -- -- 28
2019-08-06 01:00:00 19.8 2 Sudeste 7 Este 0 -- -- 30
2019-08-06 00:00:00 20.6 3 Este 22 Sudoeste 0 -- -- 30
2019-08-05 23:00:00 23.8 15 Sudoeste 25 Sudoeste 0 -- -- 24
2019-08-05 22:00:00 25.6 17 Sudoeste 24 Sudoeste 0 -- -- 22
2019-08-05 21:00:00 27.3 15 Oeste 33 Oeste 0 -- -- 19
2019-08-05 20:00:00 29.3 20 Oeste 35 Oeste 0 -- -- 19
2019-08-05 19:00:00 30.7 16 Oeste 30 Oeste 0 -- -- 19
2019-08-05 18:00:00 31.7 12 Sudoeste 37 Oeste 0 -- -- 19
2019-08-05 17:00:00 31.7 14 Sur 44 Sudoeste 0 -- -- 18
2019-08-05 16:00:00 31.8 16 Sur 41 Sudeste -- -- -- 19
2019-08-05 15:00:00 31.6 18 Sur 35 Sur 0 -- -- 19
2019-08-05 14:00:00 31.6 11 Este 25 Sudeste 0 -- -- 20
2019-08-05 13:00:00 29.9 9 Nordeste 17 Nordeste 0 -- -- 21
2019-08-05 12:00:00 28 6 Norte 12 Nordeste 0 -- -- 24
2019-08-05 11:00:00 25.7 8 Nordeste 11 Este 0 -- -- 33
2019-08-05 10:00:00 23.4 4 Nordeste 6 Nordeste 0 -- -- 44
2019-08-05 09:00:00 20.1 3 Nordeste 9 Oeste 0 -- -- 50
2019-08-05 08:00:00 16.7 4 Sudeste 11 Sur 0 -- -- 56
2019-08-05 07:00:00 15.6 0 Calma 9 Sur 0 -- -- 57
2019-08-05 06:00:00 17.3 0 Calma 9 Sur 0 -- -- 53
2019-08-05 05:00:00 17.8 6 Sur 9 Sur 0 -- -- 50
2019-08-05 04:00:00 19.2 6 Sudoeste 13 Sudoeste 0 -- -- 50
2019-08-05 03:00:00 19.7 5 Sudoeste 18 Oeste 0 -- -- 52
2019-08-05 02:00:00 20.7 12 Oeste 22 Sudoeste 0 -- -- 45
2019-08-05 01:00:00 21.4 12 Sudoeste 25 Sudoeste 0 -- -- 42
2019-08-05 00:00:00 22 4 Este 24 Sudoeste 0 -- -- 37
2019-08-04 23:00:00 24 17 Sudoeste 28 Oeste 0 -- -- 34
2019-08-04 22:00:00 25.3 15 Oeste 31 Oeste 0 -- -- 29
2019-08-04 21:00:00 27.4 21 Oeste 32 Oeste 0 -- -- 27
2019-08-04 20:00:00 28.8 21 Oeste 39 Oeste 0 -- -- 28
2019-08-04 19:00:00 30.4 22 Oeste 33 Oeste 0 -- -- 27
2019-08-04 18:00:00 31.4 19 Oeste 32 Oeste 0 -- -- 27
2019-08-04 17:00:00 31.5 19 Noroeste 32 Noroeste 0 -- -- 25
2019-08-04 16:00:00 32 14 Noroeste 29 Oeste 0 -- -- 22
2019-08-04 15:00:00 31.4 19 Oeste 40 Noroeste 0 -- -- 22
2019-08-04 14:00:00 30.7 6 Sudoeste 26 Oeste 0 -- -- 24
2019-08-04 13:00:00 29.3 13 Noroeste 24 Oeste 0 -- -- 25
2019-08-04 12:00:00 28.2 12 Noroeste 19 Noroeste 0 -- -- 26
2019-08-04 11:00:00 26.3 5 Norte 9 Nordeste 0 -- -- 34
2019-08-04 10:00:00 24.4 4 Este 6 Este 0 -- -- 41
2019-08-04 09:00:00 21.4 2 Sudeste 4 Sudoeste 0 -- -- 48
2019-08-04 08:00:00 17.1 3 Sudoeste 9 Oeste 0 -- -- 58
2019-08-04 07:00:00 16.5 0 Calma 8 Sur 0 -- -- 59
2019-08-04 06:00:00 18.1 10 Sur 14 Sur 0 -- -- 54
2019-08-04 05:00:00 19 9 Sudoeste 13 Sudoeste 0 -- -- 53
2019-08-04 04:00:00 19 8 Oeste 13 Sudoeste 0 -- -- 54
2019-08-04 03:00:00 19.9 8 Oeste 19 Oeste 0 -- -- 50
2019-08-04 02:00:00 21.6 12 Oeste 31 Sudoeste 0 -- -- 44
2019-08-04 01:00:00 23.1 20 Oeste 31 Sudoeste 0 -- -- 39
2019-08-04 00:00:00 23.1 8 Sudoeste 25 Sudoeste 0 -- -- 33
2019-08-03 23:00:00 25.2 14 Sudoeste 26 Sudoeste 0 -- -- 31
2019-08-03 22:00:00 26 14 Sudoeste 23 Sudoeste 0 -- -- 25
2019-08-03 21:00:00 27.8 13 Oeste 24 Oeste 0 -- -- 23
2019-08-03 20:00:00 29.6 17 Oeste 33 Noroeste 0 -- -- 22
2019-08-03 19:00:00 30.4 21 Oeste 36 Oeste 0 -- -- 22
2019-08-03 18:00:00 31.5 14 Oeste 33 Oeste 0 -- -- 22
2019-08-03 17:00:00 31.8 17 Oeste 30 Oeste 0 -- -- 19
2019-08-03 16:00:00 32.2 12 Sudoeste 24 Nordeste 0 -- -- 17
2019-08-03 15:00:00 31.9 14 Este 34 Sudeste 0 -- -- 19
2019-08-03 14:00:00 30.7 19 Sudeste 31 Sur 0 -- -- 20
2019-08-03 13:00:00 30 5 Norte 26 Sur 0 -- -- 18
2019-08-03 12:00:00 29.5 8 Sur 28 Sur 0 -- -- 18
2019-08-03 11:00:00 27.5 9 Noroeste 21 Sudoeste 0 -- -- 21
2019-08-03 10:00:00 23.3 4 Norte 8 Oeste 0 -- -- 33
2019-08-03 09:00:00 20.5 0 Calma 6 Noroeste 0 -- -- 41
2019-08-03 08:00:00 18.1 0 Calma 6 Oeste 0 -- -- 43
2019-08-03 07:00:00 17.2 0 Calma 4 Sur 0 -- -- 44
2019-08-03 06:00:00 17.7 0 Calma 9 Sur 0 -- -- 43
2019-08-03 05:00:00 18.1 0 Calma 10 Sudoeste 0 -- -- 42
2019-08-03 04:00:00 19.3 3 Sudeste 16 Sur 0 -- -- 39
2019-08-03 03:00:00 21.1 13 Sur 17 Sur 0 -- -- 36
2019-08-03 02:00:00 19.8 9 Sur 13 Sudoeste 0 -- -- 39
2019-08-03 01:00:00 21.7 11 Sur 15 Sur 0 -- -- 36
2019-08-03 00:00:00 22.6 12 Sur 14 Sur 0 -- -- 35
2019-08-02 23:00:00 23.4 13 Sur 16 Sur 0 -- -- 33
2019-08-02 22:00:00 25.6 5 Oeste 17 Sudoeste 0 -- -- 30
2019-08-02 21:00:00 27.4 9 Oeste 21 Norte 0 -- -- 28
2019-08-02 20:00:00 29 17 Noroeste 25 Noroeste 0 -- -- 26
2019-08-02 19:00:00 30.2 11 Noroeste 24 Norte 0 -- -- 26
2019-08-02 18:00:00 30.6 5 Norte 22 Norte 0 -- -- 26
2019-08-02 17:00:00 31.1 8 Oeste 27 Oeste 0 -- -- 26
2019-08-02 16:00:00 30.5 14 Oeste 32 Noroeste 0 -- -- 27
2019-08-02 15:00:00 29.9 11 Norte 20 Nordeste 0 -- -- 23
2019-08-02 14:00:00 29.3 11 Norte 22 Nordeste 0 -- -- 24
2019-08-02 13:00:00 28.5 8 Noroeste 17 Nordeste 0 -- -- 24
2019-08-02 12:00:00 27.4 6 Nordeste 16 Nordeste 0 -- -- 26
2019-08-02 11:00:00 24.6 6 Nordeste 12 Nordeste 0 -- -- 31
2019-08-02 10:00:00 22 3 Nordeste 6 Nordeste 0 -- -- 37
2019-08-02 09:00:00 18.9 0 Calma 2 Nordeste 0 -- -- 44
2019-08-02 08:00:00 15.5 0 Calma 5 Sudeste 0 -- -- 48
2019-08-02 07:00:00 14.6 4 Sur 5 Sur 0 -- -- 49
2019-08-02 06:00:00 15.8 4 Sudoeste 8 Sur 0 -- -- 45
2019-08-02 05:00:00 16.8 5 Sudeste 15 Sudoeste 0 -- -- 43
2019-08-02 04:00:00 17.9 6 Sudoeste 18 Oeste 0 -- -- 44
2019-08-02 03:00:00 17.6 11 Oeste 17 Sudoeste 0 -- -- 41
2019-08-02 02:00:00 18.6 10 Sudoeste 15 Sur 0 -- -- 37
2019-08-02 01:00:00 20.2 12 Sur 13 Sur 0 -- -- 34
2019-08-02 00:00:00 20.4 5 Oeste 14 Oeste 0 -- -- 36
2019-08-01 23:00:00 22 10 Sudoeste 14 Oeste 0 -- -- 34
2019-08-01 22:00:00 23.3 4 Sur 18 Norte 0 -- -- 32
2019-08-01 21:00:00 25.8 9 Noroeste 24 Oeste 0 -- -- 28
2019-08-01 20:00:00 28.2 15 Oeste 38 Oeste 0 -- -- 24
2019-08-01 19:00:00 29 18 Oeste 38 Oeste 0 -- -- 22
2019-08-01 18:00:00 29.3 19 Oeste 35 Oeste 0 -- -- 23
2019-08-01 17:00:00 29.5 24 Oeste 40 Oeste 0 -- -- 24
2019-08-01 16:00:00 29.1 23 Oeste 42 Oeste 0 -- -- 24
2019-08-01 15:00:00 28.3 29 Oeste 39 Oeste 0 -- -- 25
2019-08-01 14:00:00 27.5 28 Oeste 40 Oeste 0 -- -- 26
2019-08-01 13:00:00 26.6 27 Oeste 44 Oeste 0 -- -- 25
2019-08-01 12:00:00 25.3 30 Oeste 41 Oeste 0 -- -- 26
2019-08-01 11:00:00 24 29 Oeste 36 Oeste 0 -- -- 34
2019-08-01 10:00:00 22.1 2 Norte 6 Noroeste 0 -- -- 49
2019-08-01 09:00:00 20.5 3 Nordeste 9 Oeste 0 -- -- 59
2019-08-01 08:00:00 16.8 4 Oeste 10 Sudoeste 0 -- -- 64
2019-08-01 07:00:00 16.3 3 Sudoeste 8 Oeste 0 -- -- 62
2019-08-01 06:00:00 16.7 0 Calma 8 Sudoeste 0 -- -- 55
2019-08-01 05:00:00 17.7 4 Sur 12 Sudoeste 0 -- -- 61
2019-08-01 04:00:00 18.4 9 Oeste 12 Oeste 0 -- -- 50
2019-08-01 03:00:00 18.3 2 Sudoeste 8 Sur 0 -- -- 50
2019-08-01 02:00:00 19.6 8 Sur 11 Sur 0 -- -- 46
2019-08-01 01:00:00 20.7 5 Sudeste 8 Sudeste 0 -- -- 45
2019-08-01 00:00:00 21.3 0 Calma 6 Sudeste 0 -- -- 45
2019-07-31 23:00:00 22.3 3 Sur 8 Sudeste 0 -- -- 42
2019-07-31 22:00:00 23.5 3 Oeste 13 Sudoeste 0 -- -- 36
2019-07-31 21:00:00 25.4 12 Oeste 22 Sudeste 0 -- -- 37
2019-07-31 20:00:00 27.3 12 Sur 26 Sudeste 0 -- -- 30
2019-07-31 19:00:00 29 11 Sur 33 Sudeste 0 -- -- 27
2019-07-31 18:00:00 30.2 11 Sur 30 Sudoeste 0 -- -- 23
2019-07-31 17:00:00 29.6 18 Sur 45 Sudeste 0 -- -- 17
2019-07-31 16:00:00 29.3 20 Sudeste 40 Sudeste 0 -- -- 23
2019-07-31 15:00:00 29.2 15 Sudeste 37 Sudeste 0 -- -- 22
2019-07-31 14:00:00 27.8 19 Sudeste 41 Sudeste 0 -- -- 28
2019-07-31 13:00:00 26.9 12 Sur 31 Este 0 -- -- 33
2019-07-31 12:00:00 24.6 15 Nordeste 24 Este 0 -- -- 43
2019-07-31 11:00:00 21.8 6 Nordeste 10 Este 0 -- -- 49
2019-07-31 10:00:00 18.8 5 Nordeste 10 Nordeste 0 -- -- 46
2019-07-31 09:00:00 16.2 0 Calma 7 Noroeste 0 -- -- 44
2019-07-31 08:00:00 11.7 3 Sur 6 Noroeste 0 -- -- 55
2019-07-31 07:00:00 10.5 2 Sur 7 Sur 0 -- -- 56
2019-07-31 06:00:00 11.9 3 Oeste 9 Sur 0 -- -- 52
2019-07-31 05:00:00 12.7 2 Sur 5 Sur 0 -- -- 49
2019-07-31 04:00:00 12.7 2 Oeste 12 Sur 0 -- -- 49
2019-07-31 03:00:00 14.2 9 Sur 11 Sur 0 -- -- 45
2019-07-31 02:00:00 14.8 3 Sur 15 Sur 0 -- -- 45
2019-07-31 01:00:00 15.5 10 Sudeste 15 Sudeste 0 -- -- 43
2019-07-31 00:00:00 17 5 Sudeste 13 Sur 0 -- -- 39
2019-07-30 23:00:00 17.3 11 Sur 14 Sur 0 -- -- 37
2019-07-30 22:00:00 18.9 8 Sur 12 Norte 0 -- -- 35
2019-07-30 21:00:00 21 9 Norte 20 Norte 0 -- -- 31
2019-07-30 20:00:00 22.5 10 Nordeste 20 Norte 0 -- -- 28
2019-07-30 19:00:00 23.4 11 Norte 21 Nordeste 0 -- -- 27
2019-07-30 18:00:00 23.7 13 Nordeste 26 Nordeste 0 -- -- 28
2019-07-30 17:00:00 23.8 13 Nordeste 25 Este 0 -- -- 27
2019-07-30 16:00:00 23.2 9 Este 18 Norte 0 -- -- 26
2019-07-30 15:00:00 21.9 7 Norte 19 Nordeste 0 -- -- 28
2019-07-30 14:00:00 20.8 8 Nordeste 18 Norte 0 -- -- 30
2019-07-30 13:00:00 18.8 6 Nordeste 18 Este 0 -- -- 37
2019-07-30 12:00:00 16.7 9 Nordeste 17 Nordeste 0 -- -- 43
2019-07-30 11:00:00 15.1 4 Nordeste 13 Este 0 -- -- 52
2019-07-30 10:00:00 14 7 Este 15 Este 0 -- -- 57
2019-07-30 09:00:00 11.6 7 Este 12 Este 0 -- -- 66
2019-07-30 08:00:00 9.5 2 Sudeste 11 Oeste 0 -- -- 72
2019-07-30 07:00:00 8.9 5 Oeste 10 Oeste 0 -- -- 72
2019-07-30 06:00:00 8.9 3 Este 12 Oeste 0 -- -- 71
2019-07-30 05:00:00 10.5 8 Oeste 13 Sudoeste 0 -- -- 66
2019-07-30 04:00:00 11.4 5 Oeste 21 Oeste 0 -- -- 62
2019-07-30 03:00:00 12.7 11 Oeste 28 Oeste 0 -- -- 57
2019-07-30 02:00:00 13.9 14 Oeste 27 Oeste 0 -- -- 55
2019-07-30 01:00:00 14.9 11 Oeste 30 Oeste 0 -- -- 51
2019-07-30 00:00:00 16.2 17 Oeste 31 Sudoeste 0 -- -- 44
2019-07-29 23:00:00 17.3 19 Sudoeste 36 Oeste 0 -- -- 41
2019-07-29 22:00:00 18.4 11 Oeste 25 Oeste 0 -- -- 39
2019-07-29 21:00:00 21 21 Oeste 36 Oeste 0 -- -- 31
2019-07-29 20:00:00 22.8 27 Oeste 42 Noroeste 0 -- -- 31
2019-07-29 19:00:00 24.5 25 Oeste 48 Oeste 0 -- -- 32
2019-07-29 18:00:00 24.9 32 Oeste 52 Oeste 0 -- -- 34
2019-07-29 17:00:00 25.5 30 Oeste 49 Oeste 0 -- -- 36
2019-07-29 16:00:00 26 24 Oeste 41 Oeste 0 -- -- 37
2019-07-29 15:00:00 26.1 21 Oeste 41 Oeste 0 -- -- 32
2019-07-29 14:00:00 25.7 27 Oeste 40 Oeste 0 -- -- 30
2019-07-29 13:00:00 24.7 16 Oeste 25 Oeste 0 -- -- 33
2019-07-29 12:00:00 23.3 5 Oeste 24 Noroeste 0 -- -- 37
2019-07-29 11:00:00 21 6 Noroeste 19 Noroeste 0 -- -- 38
2019-07-29 10:00:00 19.5 3 Sudeste 7 Nordeste 0 -- -- 52
2019-07-29 09:00:00 16.8 3 Nordeste 8 Sur 0 -- -- 59
2019-07-29 08:00:00 15.6 6 Sur 16 Oeste 0 -- -- 61
2019-07-29 07:00:00 14.2 13 Oeste 17 Oeste 0 -- -- 69
2019-07-29 06:00:00 14.5 3 Sur 14 Oeste 0 -- -- 60
2019-07-29 05:00:00 15.4 10 Oeste 22 Oeste 0 -- -- 58
2019-07-29 04:00:00 15.1 11 Oeste 18 Oeste 0 -- -- 58
2019-07-29 03:00:00 16.7 0 Calma 8 Oeste 0 -- -- 46
2019-07-29 02:00:00 17 0 Calma 6 Oeste 0 -- -- 45
2019-07-29 01:00:00 16.7 2 Sudeste 10 Sudoeste 0 -- -- 46
2019-07-29 00:00:00 18.2 5 Oeste 10 Sudoeste 0 -- -- 44
2019-07-28 23:00:00 19.6 8 Sur 13 Oeste 0 -- -- 40
2019-07-28 22:00:00 20.9 8 Oeste 14 Noroeste 0 -- -- 37
2019-07-28 21:00:00 23.7 7 Noroeste 23 Oeste 0 -- -- 35
2019-07-28 20:00:00 25.5 14 Oeste 27 Oeste 0 -- -- 32
2019-07-28 19:00:00 25.8 12 Noroeste 32 Oeste 0 -- -- 31
2019-07-28 18:00:00 25.9 11 Noroeste 30 Oeste 0 -- -- 30
2019-07-28 17:00:00 26.1 16 Oeste 42 Oeste 0 -- -- 30
2019-07-28 16:00:00 25.6 15 Oeste 33 Oeste 0 -- -- 31
2019-07-28 15:00:00 25.1 14 Oeste 33 Noroeste 0 -- -- 35
2019-07-28 14:00:00 23.6 19 Noroeste 31 Oeste 0 -- -- 40
2019-07-28 13:00:00 23.1 12 Oeste 28 Oeste 0 -- -- 41
2019-07-28 12:00:00 20.7 10 Norte 17 Noroeste 0 -- -- 48
2019-07-28 11:00:00 18.8 5 Este 11 Este 0 -- -- 54
2019-07-28 10:00:00 16.1 4 Norte 8 Noroeste 0 -- -- 65
2019-07-28 09:00:00 14.1 0 Calma 3 Este 0 -- -- 74
2019-07-28 08:00:00 12.2 0 Calma 5 Sudoeste 0 -- -- 77
2019-07-28 07:00:00 10.2 2 Sur 10 Sur 0 -- -- 85
2019-07-28 06:00:00 10.9 0 Calma 6 Oeste 0 -- -- 86
2019-07-28 05:00:00 11.9 2 Sudeste 5 Sudeste 0 -- -- 82
2019-07-28 04:00:00 12.9 0 Calma 6 Nordeste 0 -- -- 79
2019-07-28 03:00:00 13.8 2 Nordeste 12 Este 0 -- -- 77
2019-07-28 02:00:00 14.7 10 Este 19 Nordeste 0 -- -- 74
2019-07-28 01:00:00 16 8 Nordeste 17 Nordeste 0 -- -- 69
2019-07-28 00:00:00 16.8 3 Sudoeste 22 Oeste 0 -- -- 61
2019-07-27 23:00:00 16.7 14 Sudoeste 21 Oeste 0 -- -- 59
2019-07-26 12:00:00 -- -- -- -- -- -- -- -- --
2019-07-26 11:00:00 17.9 17 Noroeste 25 Oeste 0 -- -- 73
2019-07-26 10:00:00 17.5 7 Oeste 17 Oeste 0 -- -- 75
2019-07-26 09:00:00 17.4 10 Oeste 13 Oeste 0 -- -- 79
2019-07-26 08:00:00 16.7 7 Oeste 13 Oeste 0 -- -- 84
2019-07-26 07:00:00 16.3 13 Oeste 17 Oeste 0 -- -- 86
2019-07-26 06:00:00 16.6 7 Oeste 22 Oeste 0 -- -- 85
2019-07-26 05:00:00 16.8 13 Oeste 23 Oeste 0 -- -- 83
2019-07-26 04:00:00 17.8 18 Oeste 30 Oeste 0 -- -- 79
2019-07-26 03:00:00 18.4 2 Oeste 27 Oeste 0 -- -- 76
2019-07-26 02:00:00 19.2 13 Oeste 25 Oeste 0 -- -- 71
2019-07-26 01:00:00 21 5 Sudoeste 16 Noroeste 0 -- -- 55
2019-07-26 00:00:00 21.3 9 Noroeste 26 Sudoeste 0 -- -- 51
2019-07-25 23:00:00 23.1 11 Oeste 21 Oeste 0 -- -- 45
2019-07-25 22:00:00 24.4 12 Sudoeste 25 Sudoeste 0 -- -- 42
2019-07-25 21:00:00 26.3 18 Sudoeste 30 Sudoeste 0 -- -- 29
2019-07-25 20:00:00 27.5 15 Sudoeste 28 Sur 0 -- -- 28
2019-07-25 19:00:00 28.9 19 Sudoeste 35 Sudoeste 0 -- -- 26
2019-07-25 18:00:00 29.5 17 Sur 33 Sudeste 0 -- -- 27
2019-07-25 17:00:00 28.3 16 Sur 40 Sudeste 0 -- -- 29
2019-07-25 16:00:00 28.9 11 Sudeste 37 Sudeste 0 -- -- 27
2019-07-25 15:00:00 29.2 19 Sudeste 39 Sur 0 -- -- 29
2019-07-25 14:00:00 29.1 18 Sur 43 Sudeste 0 -- -- 29
2019-07-25 13:00:00 28.7 25 Sudeste 41 Sudeste 0 -- -- 32
2019-07-25 12:00:00 28.7 18 Sudeste 40 Sudeste 0 -- -- 31
2019-07-25 11:00:00 28.7 10 Sudeste 28 Sur 0 -- -- 29
2019-07-25 10:00:00 24 5 Nordeste 10 Nordeste 0 -- -- 43
2019-07-25 09:00:00 21.6 0 Calma 6 Sur 0 -- -- 53
2019-07-25 08:00:00 18.7 2 Oeste 10 Sur 0 -- -- 56
2019-07-25 07:00:00 17.1 5 Sur 10 Sur 0 -- -- 58
2019-07-25 06:00:00 18.4 5 Sudoeste 12 Oeste 0 -- -- 55
2019-07-25 05:00:00 18.1 9 Oeste 11 Oeste 0 -- -- 58
2019-07-25 04:00:00 20.1 4 Sudeste 9 Sudeste 0 -- -- 51
2019-07-25 03:00:00 21.5 6 Sur 30 Oeste 0 -- -- 47
2019-07-25 02:00:00 22.6 23 Oeste 34 Oeste 0 -- -- 44
2019-07-25 01:00:00 25.1 8 Sudoeste 22 Sudoeste 0 -- -- 37
2019-07-25 00:00:00 24.6 14 Sur 20 Sur 0 -- -- 40
2019-07-24 23:00:00 25.4 12 Sur 19 Sur 0 -- -- 37
2019-07-24 22:00:00 26.1 10 Sur 17 Sur 0 -- -- 37
2019-07-24 21:00:00 28.7 9 Sur 21 Sudeste 0 -- -- 33
2019-07-24 20:00:00 29.8 13 Sudeste 28 Sur 0 -- -- 31
2019-07-24 19:00:00 30.5 14 Sudeste 29 Sudeste 0 -- -- 28
2019-07-24 18:00:00 31.4 14 Sudeste 35 Sudeste 0 -- -- 26
2019-07-24 17:00:00 31.6 18 Sudeste 35 Sur 0 -- -- 27
2019-07-24 16:00:00 31.4 18 Sur 37 Sur 0 -- -- 27
2019-07-24 15:00:00 31 19 Sur 42 Sudeste 0 -- -- 27
2019-07-24 14:00:00 30.6 19 Sudeste 40 Sudeste 0 -- -- 28
2019-07-24 13:00:00 30.4 15 Sudeste 35 Sudeste 0 -- -- 31
2019-07-24 12:00:00 29 13 Sudeste 27 Sudeste 0 -- -- 34
2019-07-24 11:00:00 27.9 15 Sudeste 26 Sudeste 0 -- -- 37
2019-07-24 10:00:00 25.8 13 Sudeste 23 Sudeste 0 -- -- 40
2019-07-24 09:00:00 21.1 5 Noroeste 8 Noroeste 0 -- -- 54
2019-07-24 08:00:00 18.1 5 Oeste 10 Noroeste 0 -- -- 58
2019-07-24 07:00:00 18.4 4 Noroeste 9 Sudeste 0 -- -- 56
2019-07-24 06:00:00 19 4 Sudoeste 12 Oeste 0 -- -- 54
2019-07-24 05:00:00 18.1 4 Este 7 Sur 0 -- -- 59
2019-07-24 04:00:00 18.9 3 Noroeste 8 Norte 0 -- -- 54
2019-07-24 03:00:00 20 4 Sudeste 16 Este 0 -- -- 50
2019-07-24 02:00:00 21.1 5 Sudoeste 16 Sur 0 -- -- 48
2019-07-24 01:00:00 22.1 8 Sur 21 Sur 0 -- -- 42
2019-07-24 00:00:00 22.9 6 Nordeste 31 Sur 0 -- -- 42
2019-07-23 23:00:00 24.3 7 Sudoeste 42 Sudeste 0 -- -- 36
2019-07-23 22:00:00 24 32 Sudeste 64 Sudeste 0 -- -- 39
2019-07-23 21:00:00 25.4 39 Sudeste 59 Sur 0 -- -- 40
2019-07-23 20:00:00 30.1 10 Sur 26 Sur 0 -- -- 32
2019-07-23 19:00:00 30.7 17 Sur 30 Sur 0 -- -- 31
2019-07-23 18:00:00 30.5 12 Sudeste 38 Sudeste 0 -- -- 33
2019-07-23 17:00:00 31.3 16 Sudeste 35 Sudeste 0 -- -- 32
2019-07-23 16:00:00 30.4 22 Sudeste 37 Sudeste 0 -- -- 33
2019-07-23 15:00:00 29.8 19 Sur 43 Este 0 -- -- 38
2019-07-23 14:00:00 29 22 Sudeste 40 Sur 0 -- -- 35
2019-07-23 13:00:00 27.4 23 Sudeste 35 Este 0 -- -- 40
2019-07-23 12:00:00 20.3 8 Nordeste 55 Sur 0.8 -- -- 69
2019-07-23 11:00:00 21.3 35 Sudeste 61 Sudeste 0.2 -- -- 64
2019-07-23 10:00:00 20.9 3 Sudeste 8 Nordeste 0 -- -- 66
2019-07-23 09:00:00 18.4 2 Oeste 15 Oeste 0 -- -- 74
2019-07-23 08:00:00 17.6 3 Este 25 Este 0 -- -- 72
2019-07-23 07:00:00 17.9 17 Oeste 50 Sudoeste 3.6 -- -- 71
2019-07-23 06:00:00 19 22 Sur 46 Sur 1.2 -- -- 67
2019-07-23 05:00:00 20.1 27 Sur 49 Sur 0.4 -- -- 59
2019-07-23 04:00:00 19 8 Oeste 32 Sur 1.2 -- -- 68
2019-07-23 03:00:00 21 23 Sur 36 Sur 0.2 -- -- 56
2019-07-23 02:00:00 24.2 10 Este 22 Oeste 0 -- -- 36
2019-07-23 01:00:00 25.9 28 Oeste 60 Oeste 0 -- -- 32
2019-07-23 00:00:00 25.5 46 Sudoeste 71 Sur 0 -- -- 33
2019-07-22 23:00:00 27.9 25 Sur 44 Sur 0 -- -- 26
2019-07-22 22:00:00 28.3 9 Sur 25 Sudeste 0 -- -- 30
2019-07-22 21:00:00 30.1 18 Sudeste 30 Sudeste 0 -- -- 27
2019-07-22 20:00:00 30.9 20 Sudeste 31 Sur 0 -- -- 28
2019-07-22 19:00:00 31.2 17 Sudeste 34 Sudeste 0 -- -- 28
2019-07-22 18:00:00 31.2 15 Sudeste 28 Sudeste 0 -- -- 28
2019-07-22 17:00:00 31.7 11 Sudeste 36 Sudeste 0 -- -- 28
2019-07-22 16:00:00 33.7 21 Sudeste 39 Sudeste 0 -- -- 26
2019-07-22 15:00:00 33.8 22 Sudeste 35 Sudeste 0 -- -- 25
2019-07-22 14:00:00 33.2 21 Sudeste 35 Sudeste 0 -- -- 26
2019-07-22 13:00:00 33 13 Sudeste 30 Sur 0 -- -- 26
2019-07-22 12:00:00 31.1 5 Noroeste 17 Noroeste 0 -- -- 27
2019-07-22 11:00:00 27.6 5 Norte 11 Norte 0 -- -- 32
2019-07-22 10:00:00 24.9 3 Noroeste 11 Noroeste 0 -- -- 36
2019-07-22 09:00:00 22.5 6 Oeste 11 Noroeste 0 -- -- 42
2019-07-22 08:00:00 19.9 5 Oeste 9 Oeste 0 -- -- 50
2019-07-22 07:00:00 19.2 6 Oeste 9 Noroeste 0 -- -- 52
2019-07-22 06:00:00 19.8 9 Oeste 13 Oeste 0 -- -- 53
2019-07-22 05:00:00 20.3 4 Noroeste 9 Noroeste 0 -- -- 54
2019-07-22 04:00:00 20.7 0 Calma 11 Norte 0 -- -- 45
2019-07-22 03:00:00 20.4 4 Sudeste 11 Este 0 -- -- 40
2019-07-22 02:00:00 23.8 7 Sur 16 Sur 0 -- -- 31
2019-07-22 01:00:00 24.1 8 Sur 18 Sur 0 -- -- 31
2019-07-22 00:00:00 23.8 3 Sudeste 15 Sur 0 -- -- 37
2019-07-21 23:00:00 26 13 Sudoeste 16 Sudoeste 0 -- -- 31
2019-07-21 22:00:00 27 9 Sur 14 Sur 0 -- -- 32
2019-07-21 21:00:00 29.5 4 Sudeste 9 Norte 0 -- -- 31
2019-07-21 20:00:00 29.8 8 Norte 25 Oeste 0 -- -- 34
2019-07-21 19:00:00 30.8 4 Este 18 Norte 0 -- -- 30
2019-07-21 18:00:00 31.7 4 Oeste 11 Oeste 0 -- -- 26
2019-07-21 17:00:00 32.4 6 Noroeste 18 Oeste 0 -- -- 26
2019-07-21 16:00:00 31.6 13 Oeste 24 Oeste 0 -- -- 27
2019-07-21 15:00:00 32.5 16 Oeste 52 Oeste 0 -- -- 26
2019-07-21 14:00:00 32.8 9 Sur 32 Sudeste 0 -- -- 25
2019-07-21 13:00:00 32.8 13 Sur 38 Este 0 -- -- 25
2019-07-21 12:00:00 31.3 10 Sudeste 18 Este 0 -- -- 26
2019-07-21 11:00:00 26.3 4 Norte 8 Norte 0 -- -- 36
2019-07-21 10:00:00 24.5 3 Este 6 Nordeste 0 -- -- 39
2019-07-21 09:00:00 20.5 0 Calma 6 Oeste 0 -- -- 48
2019-07-21 08:00:00 18.1 0 Calma 10 Sur 0 -- -- 53
2019-07-21 07:00:00 17.3 5 Sur 8 Sur 0 -- -- 54
2019-07-21 06:00:00 17.9 0 Calma 11 Oeste 0 -- -- 52
2019-07-21 05:00:00 17.4 6 Oeste 10 Oeste 0 -- -- 53
2019-07-21 04:00:00 18.5 4 Sudoeste 15 Sur 0 -- -- 48
2019-07-21 03:00:00 20.8 11 Sur 14 Sur 0 -- -- 43
2019-07-21 02:00:00 21.4 9 Sur 13 Sur 0 -- -- 41
2019-07-21 01:00:00 22.1 7 Sur 14 Sur 0 -- -- 40
2019-07-21 00:00:00 23.3 9 Sudoeste 14 Sur 0 -- -- 36
2019-07-20 23:00:00 24.2 8 Oeste 16 Oeste 0 -- -- 33
2019-07-20 22:00:00 26.2 6 Oeste 14 Noroeste 0 -- -- 30
2019-07-20 21:00:00 28.3 13 Noroeste 23 Norte 0 -- -- 28
2019-07-20 20:00:00 30.9 12 Noroeste 27 Oeste 0 -- -- 25
2019-07-20 19:00:00 32.4 8 Noroeste 28 Oeste 0 -- -- 24
2019-07-20 18:00:00 31.4 13 Nordeste 36 Sudoeste 0 -- -- 27
2019-07-20 17:00:00 31.7 8 Noroeste 41 Oeste 0 -- -- 27
2019-07-20 16:00:00 30.9 10 Noroeste 28 Noroeste 0 -- -- 29
2019-07-20 15:00:00 30.1 13 Noroeste 33 Oeste 0 -- -- 32
2019-07-20 14:00:00 31.2 24 Oeste 36 Oeste 0 -- -- 27
2019-07-20 13:00:00 30.8 25 Oeste 33 Oeste 0 -- -- 26
2019-07-20 12:00:00 29 6 Este 11 Nordeste 0 -- -- 33
2019-07-20 11:00:00 26.7 5 Nordeste 12 Nordeste 0 -- -- 37
2019-07-20 10:00:00 24.7 4 Noroeste 6 Noroeste 0 -- -- 41
2019-07-20 09:00:00 22.2 0 Calma 7 Oeste 0 -- -- 47
2019-07-20 08:00:00 18.5 8 Oeste 14 Sur 0 -- -- 55
2019-07-20 07:00:00 18.1 4 Sur 12 Oeste 0 -- -- 55
2019-07-20 06:00:00 19.2 8 Sur 13 Sur 0 -- -- 51
2019-07-20 05:00:00 19.6 8 Sudoeste 12 Sudoeste 0 -- -- 51
2019-07-20 04:00:00 19.9 5 Sur 13 Sudoeste 0 -- -- 50
2019-07-20 03:00:00 22 10 Sudoeste 24 Oeste 0 -- -- 46
2019-07-20 02:00:00 22.9 12 Oeste 31 Oeste 0 -- -- 44
2019-07-20 01:00:00 24.4 24 Oeste 39 Sudoeste 0 -- -- 41
2019-07-20 00:00:00 23.8 8 Oeste 17 Sudoeste 0 -- -- 37
2019-07-19 23:00:00 26.7 12 Sudoeste 24 Sudoeste 0 -- -- 32
2019-07-19 22:00:00 27.1 16 Sudoeste 21 Sudoeste 0 -- -- 32
2019-07-19 21:00:00 29.1 14 Oeste 30 Oeste 0 -- -- 30
2019-07-19 20:00:00 30.9 15 Sudoeste 33 Sudoeste 0 -- -- 26
2019-07-19 19:00:00 31.9 18 Sudoeste 31 Sudoeste 0 -- -- 24
2019-07-19 18:00:00 32.2 14 Sudoeste 39 Oeste 0 -- -- 23
2019-07-19 17:00:00 32.4 9 Sur 39 Sudoeste 0 -- -- 24
2019-07-19 16:00:00 32.8 13 Sur 35 Sudoeste 0 -- -- 23
2019-07-19 15:00:00 31.4 9 Nordeste 29 Sudoeste 0 -- -- 25
2019-07-19 14:00:00 29.5 13 Noroeste 46 Sur 0 -- -- 28
2019-07-19 13:00:00 31.3 11 Este 33 Sur 0 -- -- 28
2019-07-19 12:00:00 29.9 9 Sur 27 Sur 0 -- -- 30
2019-07-19 11:00:00 27.6 4 Nordeste 10 Nordeste 0 -- -- 30
2019-07-19 10:00:00 25.3 3 Norte 6 Nordeste 0 -- -- 31
2019-07-19 09:00:00 21.7 3 Noroeste 5 Oeste 0 -- -- 39
2019-07-19 08:00:00 18.8 4 Sudeste 5 Oeste 0 -- -- 45
2019-07-19 07:00:00 17.8 4 Sudoeste 10 Sur 0 -- -- 44
2019-07-19 06:00:00 17.5 5 Sur 10 Sur 0 -- -- 43
2019-07-19 05:00:00 18.2 4 Sudeste 9 Oeste 0 -- -- 42
2019-07-19 04:00:00 19.9 7 Sur 12 Sur 0 -- -- 37
2019-07-19 03:00:00 19.2 2 Sudeste 8 Sudoeste 0 -- -- 41
2019-07-19 02:00:00 20.8 8 Sur 13 Sur 0 -- -- 39
2019-07-19 01:00:00 21.5 9 Sur 14 Sur 0 -- -- 38
2019-07-19 00:00:00 22.5 12 Sur 16 Sur 0 -- -- 37